Flight Track Log - Related Links

Times and Time Zones

All times are in EDT time to prevent confusion due to time zone crossing. See the N44NC flight status page for this flight to view local times or setup timezone preferences in your user account.


Time Position Orientation Groundspeed Altitude Reporting Facility
EDT Latitude Longitude Course Direction KTS MPH feet Rate Location/Type
Tue 07:52:14 PM 36.1667 -86.8833 202° Southwest 137 158 800  Level Nashville TRACON
Tue 07:53:02 PM 36.1333 -86.9000 202° Southwest 164 189 2,100 1,632 Climbing Nashville TRACON
Tue 07:54:08 PM 36.0833 -86.9333 208° Southwest 186 214 3,900 1,472 Climbing Nashville TRACON
Tue 07:55:45 PM 36.0764 -87.0314 265° West 226 260 6,100 1,338 Climbing Memphis Center
Tue 07:56:45 PM 36.0931 -87.1128 284° West 226 260 7,400 1,350 Climbing Memphis Center
Tue 07:57:45 PM 36.1075 -87.1867 284° West 226 260 8,800 1,400 Climbing Memphis Center
Tue 07:58:45 PM 36.1261 -87.2581 288° West 219 252 10,200 1,300 Climbing Memphis Center
Tue 07:59:45 PM 36.1464 -87.3267 290° West 219 252 11,400 850 Climbing Memphis Center
Tue 08:00:45 PM 36.1669 -87.4003 289° West 225 259 11,900 800 Climbing Memphis Center
Tue 08:01:45 PM 36.1875 -87.4742 289° West 230 265 13,000 1,200 Climbing Memphis Center
Tue 08:02:45 PM 36.2078 -87.5403 291° West 218 251 14,300 1,050 Climbing Memphis Center
Tue 08:03:45 PM 36.2258 -87.5964 292° West 207 238 15,100 750 Climbing Memphis Center
Tue 08:04:45 PM 36.2442 -87.6678 288° West 212 244 15,800 850 Climbing Memphis Center
Tue 08:05:45 PM 36.2664 -87.7367 292° West 217 250 16,800 900 Climbing Memphis Center
Tue 08:06:45 PM 36.2886 -87.8028 293° West 217 250 17,600 750 Climbing Memphis Center
Tue 08:07:45 PM 36.3089 -87.8742 289° West 217 250 18,300 450 Climbing Memphis Center
Tue 08:08:45 PM 36.3292 -87.9508 288° West 230 265 18,500 500 Climbing Memphis Center
Tue 08:09:45 PM 36.3536 -88.0378 289° West 239 275 19,300 850 Climbing Memphis Center
Tue 08:10:45 PM 36.3778 -88.1092 293° West 239 275 20,200 750 Climbing Memphis Center
Tue 08:11:45 PM 36.4022 -88.1833 292° West 234 269 20,800 550 Climbing Memphis Center
Tue 08:12:45 PM 36.4200 -88.2578 287° West 229 264 21,300 550 Climbing Memphis Center
Tue 08:13:45 PM 36.4422 -88.3319 290° West 229 264 21,900 600 Climbing Memphis Center
Tue 08:14:45 PM 36.4642 -88.4061 290° West 229 264 22,500 600 Climbing Memphis Center
Tue 08:15:45 PM 36.4842 -88.4806 288° West 224 258 23,100 550 Climbing Memphis Center
Tue 08:16:45 PM 36.5039 -88.5497 290° West 224 258 23,600 450 Climbing Memphis Center
Tue 08:17:45 PM 36.5236 -88.6242 288° West 224 258 24,000 300 Climbing Memphis Center
Tue 08:18:45 PM 36.5436 -88.7014 288° West 224 258 24,200 100 Climbing Memphis Center
Tue 08:19:45 PM 36.5633 -88.7811 287° West 229 264 24,200 50 Level Memphis Center
Tue 08:20:45 PM 36.5872 -88.8658 289° West 245 282 24,300 50 Climbing Memphis Center
Tue 08:21:45 PM 36.6092 -88.9481 288° West 245 282 24,300  Level Memphis Center
Tue 08:22:45 PM 36.6308 -89.0150 292° West 250 288 24,300 -150 Level Memphis Center
Tue 08:23:45 PM 36.6525 -89.1050 287° West 250 288 24,000 -150 Descending Memphis Center
Tue 08:24:45 PM 36.6783 -89.1953 290° West 250 288 24,000 50 Level Memphis Center
Tue 08:25:45 PM 36.7044 -89.2983 288° West 270 311 24,100 50 Climbing Memphis Center
Tue 08:26:45 PM 36.7300 -89.3861 290° West 270 311 24,100  Level Memphis Center
Tue 08:27:45 PM 36.7536 -89.4764 288° West 270 311 24,100  Level Memphis Center
Tue 08:28:45 PM 36.7750 -89.5642 287° West 270 311 24,100  Level Memphis Center
Tue 08:29:45 PM 36.7986 -89.6547 288° West 270 311 24,100  Level Memphis Center
Tue 08:30:45 PM 36.8219 -89.7428 288° West 270 311 24,100  Level Memphis Center
Tue 08:31:45 PM 36.8453 -89.8306 288° West 270 311 24,100 50 Level Memphis Center
Tue 08:32:45 PM 36.8706 -89.9186 290° West 270 311 24,200 50 Climbing Memphis Center
Tue 08:33:45 PM 36.8939 -90.0042 289° West 265 305 24,200  Level Memphis Center
Tue 08:34:45 PM 36.9150 -90.0922 287° West 265 305 24,200  Level Memphis Center
Tue 08:35:45 PM 36.9358 -90.1831 286° West 265 305 24,200  Level Memphis Center
Tue 08:36:45 PM 36.9589 -90.2711 288° West 265 305 24,200  Level Memphis Center
Tue 08:37:45 PM 36.9797 -90.3569 287° West 265 305 24,200 -33 Level Memphis Center
Tue 08:39:47 PM 37.0283 -90.5303 289° West 270 311 24,100 -33 Descending Kansas City Center
Tue 08:40:49 PM 37.0511 -90.6211 287° West 273 314 24,100  Level Kansas City Center
Tue 08:41:51 PM 37.0756 -90.7089 289° West 269 310 24,100  Level Kansas City Center
Tue 08:42:53 PM 37.0975 -90.7933 288° West 268 308 24,100  Level Kansas City Center
Tue 08:43:54 PM 37.1236 -90.8978 287° West 263 303 24,100  Level Kansas City Center
Tue 08:44:56 PM 37.1453 -90.9850 287° West 263 303 24,100  Level Kansas City Center
Tue 08:45:58 PM 37.1681 -91.0725 288° West 263 303 24,100  Level Kansas City Center
Tue 08:47:00 PM 37.1886 -91.1617 286° West 264 304 24,100  Level Kansas City Center
Tue 08:48:01 PM 37.2111 -91.2483 288° West 262 302 24,100  Level Kansas City Center
Tue 08:49:03 PM 37.2328 -91.3367 287° West 264 304 24,100  Level Kansas City Center
Tue 08:50:05 PM 37.2556 -91.4244 288° West 264 304 24,100 48 Level Kansas City Center
Tue 08:51:07 PM 37.2772 -91.5117 287° West 262 302 24,200 49 Climbing Kansas City Center
Tue 08:52:08 PM 37.2969 -91.5997 286° West 261 300 24,200  Level Kansas City Center
Tue 08:53:10 PM 37.3236 -91.7058 288° West 264 304 24,200  Level Kansas City Center
Tue 08:54:12 PM 37.3447 -91.7925 287° West 262 302 24,200  Level Kansas City Center
Tue 08:55:13 PM 37.3661 -91.8803 287° West 262 302 24,200  Level Kansas City Center
Tue 08:56:15 PM 37.3886 -91.9681 288° West 262 302 24,200  Level Kansas City Center
Tue 08:57:17 PM 37.4083 -92.0564 286° West 262 302 24,200  Level Kansas City Center
Tue 08:58:19 PM 37.4289 -92.1453 286° West 263 303 24,200  Level Kansas City Center
Tue 08:59:20 PM 37.4506 -92.2328 287° West 262 302 24,200  Level Kansas City Center
Tue 09:00:22 PM 37.4728 -92.3217 288° West 263 303 24,200  Level Kansas City Center
Tue 09:01:24 PM 37.4939 -92.4092 287° West 262 302 24,200 -49 Level Kansas City Center
Tue 09:02:25 PM 37.5200 -92.5183 287° West 266 306 24,100 -49 Descending Kansas City Center
Tue 09:03:27 PM 37.5403 -92.6075 286° West 265 305 24,100  Level Kansas City Center
Tue 09:04:29 PM 37.5611 -92.6964 286° West 264 304 24,100  Level Kansas City Center
Tue 09:05:30 PM 37.5839 -92.7856 288° West 264 304 24,100  Level Kansas City Center
Tue 09:06:32 PM 37.6044 -92.8742 286° West 263 303 24,100  Level Kansas City Center
Tue 09:07:34 PM 37.6447 -92.9511 303° West 263 303 24,100  Level Kansas City Center
Tue 09:08:36 PM 37.6900 -93.0250 308° West 265 305 24,100  Level Kansas City Center
Tue 09:09:37 PM 37.7289 -93.1047 302° West 265 305 24,100  Level Kansas City Center
Tue 09:10:39 PM 37.7497 -93.1972 286° West 270 311 24,100  Level Kansas City Center
Tue 09:11:41 PM 37.7708 -93.2881 286° West 269 310 24,100  Level Kansas City Center
Tue 09:12:42 PM 37.8017 -93.3961 290° West 270 311 24,100  Level Kansas City Center
Tue 09:13:44 PM 37.8217 -93.4878 285° West 271 312 24,100  Level Kansas City Center
Tue 09:14:46 PM 37.8422 -93.5792 286° West 270 311 24,100  Level Kansas City Center
Tue 09:15:47 PM 37.8606 -93.6719 284° West 271 312 24,100  Level Kansas City Center
Tue 09:16:49 PM 37.8792 -93.7642 284° West 270 311 24,100  Level Kansas City Center
Tue 09:17:51 PM 37.8978 -93.8558 284° West 268 308 24,100  Level Kansas City Center
Tue 09:18:52 PM 37.9181 -93.9469 286° West 268 308 24,100  Level Kansas City Center
Tue 09:19:54 PM 37.9375 -94.0378 285° West 267 307 24,100  Level Kansas City Center
Tue 09:20:56 PM 37.9592 -94.1422 285° West 270 311 24,100  Level Kansas City Center
Tue 09:21:57 PM 37.9783 -94.2306 285° West 272 313 24,100  Level Kansas City Center
Tue 09:22:59 PM 38.0017 -94.3339 286° West 272 313 24,100  Level Kansas City Center
Tue 09:24:00 PM 38.0208 -94.4247 285° West 276 318 24,100  Level Kansas City Center
Tue 09:25:02 PM 38.0425 -94.5294 285° West 275 316 24,100  Level Kansas City Center
Tue 09:26:04 PM 38.0619 -94.6197 285° West 276 318 24,100  Level Kansas City Center
Tue 09:27:05 PM 38.0806 -94.7103 285° West 276 318 24,100  Level Kansas City Center
Tue 09:28:07 PM 38.1014 -94.8142 284° West 273 314 24,100  Level Kansas City Center
Tue 09:29:09 PM 38.1211 -94.9031 286° West 273 314 24,100  Level Kansas City Center
Tue 09:30:10 PM 38.1419 -95.0064 284° West 271 312 24,100  Level Kansas City Center
Tue 09:31:12 PM 38.1597 -95.0950 284° West 271 312 24,100  Level Kansas City Center
Tue 09:32:13 PM 38.1794 -95.1867 285° West 274 315 24,100  Level Kansas City Center
Tue 09:33:15 PM 38.2003 -95.2900 284° West 270 311 24,100  Level Kansas City Center
Tue 09:34:17 PM 38.2186 -95.3783 285° West 270 311 24,100  Level Kansas City Center
Tue 09:35:18 PM 38.2394 -95.4842 284° West 274 315 24,100  Level Kansas City Center
Tue 09:36:20 PM 38.2558 -95.5731 283° West 272 313 24,100  Level Kansas City Center
Tue 09:37:22 PM 38.2764 -95.6772 284° West 271 312 24,100  Level Kansas City Center
Tue 09:38:23 PM 38.2936 -95.7644 284° West 267 307 24,100  Level Kansas City Center
Tue 09:39:25 PM 38.3122 -95.8525 285° West 267 307 24,100  Level Kansas City Center
Tue 09:40:26 PM 38.3342 -95.9561 285° West 269 310 24,100  Level Kansas City Center
Tue 09:41:28 PM 38.3514 -96.0425 284° West 265 305 24,100  Level Kansas City Center
Tue 09:42:30 PM 38.3706 -96.1450 283° West 266 306 24,100  Level Kansas City Center
Tue 09:43:31 PM 38.3889 -96.2331 285° West 268 308 24,100  Level Kansas City Center
Tue 09:44:33 PM 38.4058 -96.3194 284° West 265 305 24,100  Level Kansas City Center
Tue 09:45:34 PM 38.4242 -96.4217 283° West 265 305 24,100  Level Kansas City Center
Tue 09:46:36 PM 38.4422 -96.5147 284° West 267 307 24,100  Level Kansas City Center
Tue 09:47:38 PM 38.4600 -96.6067 284° West 264 304 24,100  Level Kansas City Center
Tue 09:48:39 PM 38.4781 -96.6967 284° West 262 302 24,100  Level Kansas City Center
Tue 09:49:41 PM 38.4942 -96.7828 283° West 262 302 24,100  Level Kansas City Center
Tue 09:50:42 PM 38.5108 -96.8747 283° West 262 302 24,100  Level Kansas City Center
Tue 09:51:44 PM 38.5275 -96.9636 284° West 260 299 24,100  Level Kansas City Center
Tue 09:52:45 PM 38.5478 -97.0697 284° West 257 296 24,100  Level Kansas City Center
Tue 09:53:47 PM 38.5647 -97.1581 284° West 257 296 24,100  Level Kansas City Center
Tue 09:54:48 PM 38.5803 -97.2464 283° West 255 293 24,100  Level Kansas City Center
Tue 09:55:50 PM 38.5967 -97.3331 284° West 253 291 24,100  Level Kansas City Center
Tue 09:56:51 PM 38.6131 -97.4206 284° West 254 292 24,100  Level Kansas City Center
Tue 09:57:53 PM 38.6283 -97.5069 283° West 251 289 24,100  Level Kansas City Center
Tue 09:58:54 PM 38.6442 -97.5961 283° West 256 295 24,100  Level Kansas City Center
Tue 09:59:56 PM 38.6597 -97.6828 283° West 253 291 24,100  Level Kansas City Center
Tue 10:00:57 PM 38.6797 -97.7881 284° West 254 292 24,100  Level Kansas City Center
Tue 10:01:59 PM 38.6958 -97.8756 283° West 255 293 24,100  Level Kansas City Center
Tue 10:03:00 PM 38.7114 -97.9644 283° West 255 293 24,100  Level Kansas City Center
Tue 10:04:02 PM 38.7261 -98.0517 282° West 253 291 24,100  Level Kansas City Center
Tue 10:05:03 PM 38.7411 -98.1378 283° West 251 289 24,100  Level Kansas City Center
Tue 10:06:05 PM 38.7553 -98.2264 282° West 253 291 24,100  Level Kansas City Center
Tue 10:07:06 PM 38.7711 -98.3131 283° West 252 290 24,100  Level Kansas City Center
Tue 10:08:08 PM 38.7869 -98.4017 283° West 255 293 24,100  Level Kansas City Center
Tue 10:09:09 PM 38.8061 -98.5064 283° West 254 292 24,100  Level Kansas City Center
Tue 10:10:11 PM 38.8214 -98.5933 283° West 250 288 24,100  Level Kansas City Center
Tue 10:12:14 PM 38.8514 -98.7681 282° West 252 290 24,100  Level Kansas City Center
Tue 10:13:15 PM 38.8656 -98.8533 282° West 247 284 24,100  Level Kansas City Center
Tue 10:14:16 PM 38.8794 -98.9397 282° West 248 285 24,100  Level Kansas City Center
Tue 10:14:31 PM 38.8831 -98.9653 280° West 245 282 24,100  Level Denver Center
Tue 10:15:32 PM 38.8972 -99.0486 282° West 248 285 24,100  Level Denver Center
Tue 10:16:34 PM 38.9131 -99.1442 282° West 245 282 24,100  Level Denver Center
Tue 10:18:22 PM 38.9397 -99.3028 282° West 250 288 24,100  Level Kansas City Center
Tue 10:18:37 PM 38.9433 -99.3244 282° West 250 288 24,100  Level Denver Center
Tue 10:19:38 PM 38.9572 -99.4064 282° West 248 285 24,100  Level Denver Center
Tue 10:20:40 PM 38.9731 -99.5033 282° West 249 287 24,100  Level Denver Center
Tue 10:21:41 PM 38.9856 -99.5861 281° West 248 285 24,100  Level Denver Center
Tue 10:22:42 PM 38.9994 -99.6689 282° West 249 287 24,100  Level Denver Center
Tue 10:23:44 PM 39.0147 -99.7633 282° West 243 280 24,100  Level Denver Center
Tue 10:24:45 PM 39.0267 -99.8425 281° West 239 275 24,100  Level Denver Center
Tue 10:25:47 PM 39.0292 -99.9350 272° West 232 267 24,100  Level Denver Center
Tue 10:26:48 PM 39.0475 -100.0047 289° West 236 272 24,100  Level Denver Center
Tue 10:27:49 PM 39.0753 -100.0925 292° West 237 273 24,100  Level Denver Center
Tue 10:28:51 PM 39.0892 -100.1706 283° West 234 269 24,100  Level Denver Center
Tue 10:29:52 PM 39.1064 -100.2583 284° West 228 262 24,100  Level Denver Center
Tue 10:30:53 PM 39.1233 -100.3339 286° West 230 265 24,100  Level Denver Center
Tue 10:31:55 PM 39.1350 -100.4097 281° West 227 261 24,100  Level Denver Center
Tue 10:32:56 PM 39.1483 -100.5006 281° West 231 266 24,100  Level Denver Center
Tue 10:33:57 PM 39.1583 -100.5786 279° West 229 264 24,100  Level Denver Center
Tue 10:34:59 PM 39.1697 -100.6681 279° West 227 261 24,100  Level Denver Center
Tue 10:36:00 PM 39.1808 -100.7422 281° West 223 257 24,100  Level Denver Center
Tue 10:37:01 PM 39.1900 -100.8139 279° West 216 249 24,100  Level Denver Center
Tue 10:38:02 PM 39.2033 -100.8969 282° West 212 244 24,100  Level Denver Center
Tue 10:39:03 PM 39.2133 -100.9703 280° West 215 247 24,100  Level Denver Center
Tue 10:40:05 PM 39.2250 -101.0567 280° West 218 251 24,100  Level Denver Center
Tue 10:41:06 PM 39.2347 -101.1303 280° West 218 251 24,100  Level Denver Center
Tue 10:42:07 PM 39.2461 -101.2056 281° West 221 254 24,100  Level Denver Center
Tue 10:43:08 PM 39.2586 -101.2964 280° West 229 264 24,100  Level Denver Center
Tue 10:44:09 PM 39.2700 -101.3736 281° West 230 265 24,100  Level Denver Center
Tue 10:45:10 PM 39.2836 -101.4536 282° West 237 273 24,100  Level Denver Center
Tue 10:46:11 PM 39.2958 -101.5417 280° West 226 260 24,100  Level Denver Center
Tue 10:47:13 PM 39.3061 -101.6194 280° West 227 261 24,100  Level Denver Center
Tue 10:48:14 PM 39.3178 -101.7025 280° West 237 273 24,100  Level Denver Center
Tue 10:49:15 PM 39.3319 -101.7928 281° West 235 270 24,100  Level Denver Center
Tue 10:50:16 PM 39.3422 -101.8719 280° West 235 270 24,100  Level Denver Center
Tue 10:51:17 PM 39.3561 -101.9653 281° West 237 273 24,100  Level Denver Center
Tue 10:52:18 PM 39.3672 -102.0464 280° West 239 275 24,100  Level Denver Center
Tue 10:54:20 PM 39.3917 -102.2194 280° West 234 269 24,100  Level Denver Center
Tue 10:55:21 PM 39.4036 -102.3003 281° West 239 275 24,100  Level Denver Center
Tue 10:56:22 PM 39.4142 -102.3903 279° West 237 273 24,100  Level Denver Center
Tue 10:57:23 PM 39.4250 -102.4744 279° West 236 272 24,100  Level Denver Center
Tue 10:58:36 PM 39.4369 -102.5600 280° West 239 275 24,100  Level Denver Center
Tue 10:59:50 PM 39.4506 -102.6581 280° West 236 272 24,100  Level Denver Center
Tue 11:00:51 PM 39.4617 -102.7542 279° West 231 266 24,100  Level Denver Center
Tue 11:01:52 PM 39.4725 -102.8386 279° West 234 269 24,100  Level Denver Center
Tue 11:02:53 PM 39.4833 -102.9217 280° West 234 269 24,100  Level Denver Center
Tue 11:03:54 PM 39.4956 -103.0042 281° West 231 266 24,100  Level Denver Center
Tue 11:04:55 PM 39.5075 -103.0864 281° West 230 265 24,100  Level Denver Center
Tue 11:06:08 PM 39.5186 -103.1947 278° West 227 261 24,100  Level Denver Center
Tue 11:07:09 PM 39.5219 -103.2767 273° West 227 261 24,100  Level Denver Center
Tue 11:08:11 PM 39.5147 -103.3578 263° West 227 261 24,100  Level Denver Center
Tue 11:09:12 PM 39.5061 -103.4375 262° West 223 257 24,100  Level Denver Center
Tue 11:10:13 PM 39.5075 -103.5181 271° West 221 254 24,100  Level Denver Center
Tue 11:11:14 PM 39.5128 -103.5989 275° West 223 257 24,100  Level Denver Center
Tue 11:12:15 PM 39.5225 -103.6792 279° West 224 258 24,100  Level Denver Center
Tue 11:13:16 PM 39.5256 -103.7639 273° West 232 267 24,100  Level Denver Center
Tue 11:14:17 PM 39.5244 -103.8456 269° West 222 255 24,100  Level Denver Center
Tue 11:15:18 PM 39.5203 -103.9269 266° West 224 258 24,100  Level Denver Center
Tue 11:16:19 PM 39.5175 -104.0067 267° West 222 255 24,100  Level Denver Center
Tue 11:17:20 PM 39.5150 -104.0858 268° West 219 252 24,100  Level Denver Center
Tue 11:18:21 PM 39.5131 -104.1650 268° West 221 254 24,100  Level Denver Center
Tue 11:19:22 PM 39.5106 -104.2425 268° West 213 245 24,100  Level Denver Center
Tue 11:20:23 PM 39.5108 -104.3228 270° West 220 253 24,100  Level Denver Center
Tue 11:21:24 PM 39.5092 -104.4014 268° West 216 249 24,100  Level Denver Center
Tue 11:22:25 PM 39.5078 -104.4825 269° West 221 254 24,100  Level Denver Center
Tue 11:24:27 PM 39.5053 -104.6431 269° West 218 251 24,100  Level Denver Center
Tue 11:25:28 PM 39.5031 -104.7244 268° West 220 253 24,100  Level Denver Center
Tue 11:26:29 PM 39.5022 -104.8058 269° West 222 255 24,100  Level Denver Center
Tue 11:27:30 PM 39.5003 -104.8875 268° West 223 257 24,100  Level Denver Center
Tue 11:28:43 PM 39.4997 -104.9669 270° West 220 253 24,100  Level Denver Center
Tue 11:29:44 PM 39.4975 -105.0608 268° West 222 255 24,100  Level Denver Center
Tue 11:30:45 PM 39.4964 -105.1411 269° West 221 254 24,100  Level Denver Center
Tue 11:31:46 PM 39.4919 -105.2231 266° West 226 260 24,100  Level Denver Center
Tue 11:32:47 PM 39.4886 -105.3039 267° West 224 258 24,100  Level Denver Center
Tue 11:33:48 PM 39.4861 -105.3869 268° West 229 264 24,100  Level Denver Center
Tue 11:34:49 PM 39.4847 -105.4672 269° West 221 254 24,100  Level Denver Center
Tue 11:35:50 PM 39.4844 -105.5467 270° West 217 250 24,100 -49 Level Denver Center
Tue 11:36:51 PM 39.4822 -105.6328 268° West 217 250 24,000 -344 Descending Denver Center
Tue 11:37:52 PM 39.4797 -105.7067 268° West 205 236 23,400 -942 Descending Denver Center
Tue 11:38:52 PM 39.4775 -105.7808 268° West 208 239 22,100 -1,240 Descending Denver Center
Tue 11:39:53 PM 39.4747 -105.8519 267° West 210 242 20,900 -1,033 Descending Denver Center
Tue 11:40:54 PM 39.4725 -105.9289 268° West 213 245 20,000 -836 Descending Denver Center
Tue 11:41:55 PM 39.4711 -106.0044 269° West 209 241 19,200 -787 Descending Denver Center
Tue 11:42:56 PM 39.4692 -106.0800 268° West 209 241 18,400 -984 Descending Denver Center
Tue 11:43:57 PM 39.4644 -106.1619 266° West 230 265 17,200 -787 Descending Denver Center
Tue 11:44:58 PM 39.4614 -106.2467 267° West 235 270 16,800  Descending Denver Center
Tue 11:45:59 PM 39.4575 -106.3397 267° West 220 253 17,200 197 Climbing Denver Center
Tue 11:47:00 PM 39.4569 -106.4183 270° West 218 251 17,200  Level Denver Center
Tue 11:48:01 PM 39.4542 -106.4997 267° West 224 258 17,200 -49 Level Denver Center
Tue 11:49:02 PM 39.4508 -106.5875 267° West 234 269 17,100 -329 Descending Denver Center
Tue 11:51:00 PM 39.4334 -106.7604 270° West  Level FlightAware Approximate
Tue 11:55:19 PM 39.5150 -107.0403 276° West 209 241 14,800  Level Denver Center
Tue 11:56:20 PM 39.5350 -107.0933 296° West 205 236 14,300 -443 Descending Denver Center
Tue 11:57:21 PM 39.5572 -107.1750 289° West 200 230 13,900 -197 Descending Denver Center
Tue 11:58:00 PM 39.4840 -107.3707 282° West  Level FlightAware Approximate
Tue 11:58:22 PM 39.5372 -107.2414 249° West 187 215 13,900  Level Denver Center
Tue 11:59:00 PM 39.4983 -107.4567 282° West  Level FlightAware Approximate
Tue 11:59:23 PM 39.5325 -107.3058 265° West 165 190 13,300  Level Denver Center
Wed 12:00:00 AM 39.5060 -107.5442 276° West  Level FlightAware Approximate
Wed 12:00:24 AM 39.5361 -107.2936 69° East 172 198 10,000  Level Denver Center
Wed 12:01:24 AM 39.5286 -107.3750 263° West 146 168 10,900 496 Climbing Denver Center
Wed 12:02:25 AM 39.5317 -107.4428 273° West 168 193 11,000 98 Climbing Denver Center

Login

Don't have an account? Register now (free) for customized features, flight alerts, and more!